Time;durP1;ratioP1;P1;durP2;ratioP2;P2;SDS_P1;SDS_P2;PMS_P1;PMS_P2;Temp;Humidity;BMP_temperature;BMP_pressure;BME280_temperature;BME280_humidity;BME280_pressure;Samples;Min_cycle;Max_cycle;Signal;HPM_P1;HPM_P2
2023/06/23 00:00:53;;;;;;;6.53;2.10;;;;;;;;;;5031743;28;20041;-48
2023/06/23 00:03:20;;;;;;;12.15;2.40;;;;;;;;;;5033003;28;20137;-48
2023/06/23 00:05:47;;;;;;;10.90;2.63;;;;;;;;;;5017916;28;20093;-49
2023/06/23 00:08:14;;;;;;;8.23;2.28;;;;;;;;;;5022494;28;20178;-50
2023/06/23 00:10:43;;;;;;;10.25;2.58;;;;;;;;;;5032213;28;20035;-48
2023/06/23 00:13:11;;;;;;;15.38;2.40;;;;;;;;;;5023529;28;20041;-48
2023/06/23 00:15:38;;;;;;;10.82;2.33;;;;;;;;;;5016068;28;20041;-48
2023/06/23 00:18:05;;;;;;;9.10;2.58;;;;;;;;;;5016170;28;20026;-52
2023/06/23 00:20:32;;;;;;;14.18;2.85;;;;;;;;;;5017803;28;20730;-48
2023/06/23 00:22:59;;;;;;;10.00;2.30;;;;;;;;;;5024775;28;20069;-50
2023/06/23 00:25:26;;;;;;;10.65;2.30;;;;;;;;;;5012182;28;20030;-48
2023/06/23 00:27:53;;;;;;;5.80;2.40;;;;;;;;;;5014047;28;20080;-47
2023/06/23 00:30:20;;;;;;;7.22;2.42;;;;;;;;;;5014305;28;20028;-48
2023/06/23 00:32:47;;;;;;;11.95;2.30;;;;;;;;;;5025435;28;20124;-47
2023/06/23 00:35:14;;;;;;;12.27;2.50;;;;;;;;;;5033691;28;20025;-46
2023/06/23 00:37:41;;;;;;;11.20;2.80;;;;;;;;;;5019681;28;20034;-47
2023/06/23 00:40:11;;;;;;;11.20;2.50;;;;;;;;;;5018806;28;20509;-49
2023/06/23 00:42:52;;;;;;;19.48;2.45;;;;;;;;;;5020688;28;20044;-49
2023/06/23 00:45:20;;;;;;;10.50;2.40;;;;;;;;;;5022509;28;20052;-47
2023/06/23 00:47:47;;;;;;;12.65;2.28;;;;;;;;;;5026280;28;20034;-48
2023/06/23 00:50:18;;;;;;;21.05;2.50;;;;;;;;;;5033520;28;20481;-48
2023/06/23 00:52:52;;;;;;;9.35;3.05;;;;;;;;;;5033148;28;20439;-48
2023/06/23 00:55:23;;;;;;;35.53;4.88;;;;;;;;;;5014157;28;20037;-47
2023/06/23 00:57:51;;;;;;;30.70;5.95;;;;;;;;;;5027584;28;20105;-49
2023/06/23 01:00:19;;;;;;;30.83;6.70;;;;;;;;;;5033475;28;20430;-51
2023/06/23 01:02:49;;;;;;;36.75;7.47;;;;;;;;;;5032742;28;20117;-52
2023/06/23 01:05:17;;;;;;;50.05;10.90;;;;;;;;;;5033466;28;20041;-51
2023/06/23 01:07:50;;;;;;;62.15;13.60;;;;;;;;;;5020843;28;20095;-48
2023/06/23 01:10:21;;;;;;;70.18;16.83;;;;;;;;;;5033178;28;20487;-48
2023/06/23 01:13:00;;;;;;;70.88;18.33;;;;;;;;;;5021615;28;20029;-48
2023/06/23 01:15:35;;;;;;;79.32;20.63;;;;;;;;;;5033491;28;20036;-50
2023/06/23 01:18:08;;;;;;;86.85;21.75;;;;;;;;;;5022734;28;20091;-48
2023/06/23 01:20:38;;;;;;;89.63;21.08;;;;;;;;;;5022406;28;20030;-48
2023/06/23 01:23:23;;;;;;;91.70;23.10;;;;;;;;;;5016259;28;20033;-49
2023/06/23 01:25:55;;;;;;;80.03;20.90;;;;;;;;;;5012841;28;20112;-48
2023/06/23 01:28:31;;;;;;;69.20;19.10;;;;;;;;;;5012817;28;20496;-49
2023/06/23 01:31:00;;;;;;;85.55;21.20;;;;;;;;;;5021004;28;20088;-50
2023/06/23 01:33:37;;;;;;;76.15;15.57;;;;;;;;;;5032783;28;20034;-50
2023/06/23 01:36:11;;;;;;;66.55;16.30;;;;;;;;;;5032682;28;20036;-47
2023/06/23 01:38:41;;;;;;;71.47;16.38;;;;;;;;;;5032385;28;20120;-48
2023/06/23 01:41:12;;;;;;;60.53;15.27;;;;;;;;;;5026078;28;20037;-49
2023/06/23 01:43:40;;;;;;;69.50;17.90;;;;;;;;;;5027822;28;20037;-50
2023/06/23 01:46:09;;;;;;;57.00;15.93;;;;;;;;;;5032578;28;20060;-48
2023/06/23 01:48:38;;;;;;;60.08;16.10;;;;;;;;;;5032508;28;20029;-52
2023/06/23 01:51:06;;;;;;;62.03;17.10;;;;;;;;;;5019385;28;20026;-55
2023/06/23 01:53:33;;;;;;;74.82;19.40;;;;;;;;;;5019140;28;20436;-55
2023/06/23 01:56:02;;;;;;;70.72;20.38;;;;;;;;;;5027666;28;20388;-54
2023/06/23 01:58:35;;;;;;;84.47;26.52;;;;;;;;;;5011808;28;20117;-49
2023/06/23 02:01:03;;;;;;;85.20;28.42;;;;;;;;;;5011854;28;20038;-50
2023/06/23 02:03:31;;;;;;;96.63;30.20;;;;;;;;;;5025559;28;20537;-55
2023/06/23 02:05:59;;;;;;;91.88;28.20;;;;;;;;;;5020576;28;20037;-51
2023/06/23 02:08:28;;;;;;;90.82;29.88;;;;;;;;;;5016909;28;20104;-51
2023/06/23 02:10:57;;;;;;;88.80;28.75;;;;;;;;;;5021765;28;20193;-51
2023/06/23 02:13:25;;;;;;;79.78;26.98;;;;;;;;;;5031938;28;20503;-50
2023/06/23 02:15:52;;;;;;;82.55;27.50;;;;;;;;;;5019447;28;20033;-50
2023/06/23 02:18:20;;;;;;;75.10;25.90;;;;;;;;;;5031067;28;20044;-51
2023/06/23 02:20:48;;;;;;;75.15;24.35;;;;;;;;;;5025081;28;20030;-52
2023/06/23 02:23:16;;;;;;;65.00;24.50;;;;;;;;;;5031919;28;20026;-52
2023/06/23 02:25:44;;;;;;;78.60;22.92;;;;;;;;;;5028720;28;20064;-50
2023/06/23 02:28:12;;;;;;;67.93;23.30;;;;;;;;;;5017256;28;20029;-51
2023/06/23 02:30:40;;;;;;;65.43;22.30;;;;;;;;;;5029304;28;20036;-52
2023/06/23 02:33:08;;;;;;;56.63;22.63;;;;;;;;;;5028592;28;20057;-49
2023/06/23 02:35:35;;;;;;;59.63;20.98;;;;;;;;;;5028255;28;20028;-49
2023/06/23 02:38:09;;;;;;;62.95;20.38;;;;;;;;;;5031193;28;20095;-55
2023/06/23 02:40:37;;;;;;;64.55;20.02;;;;;;;;;;5028627;28;20033;-54
2023/06/23 02:43:24;;;;;;;55.85;18.88;;;;;;;;;;5031345;28;20021;-48
2023/06/23 02:45:54;;;;;;;48.25;17.83;;;;;;;;;;5030750;28;20037;-51
2023/06/23 02:48:23;;;;;;;55.08;18.42;;;;;;;;;;5029228;28;20044;-50
2023/06/23 02:50:51;;;;;;;50.67;17.40;;;;;;;;;;5022211;28;20029;-51
2023/06/23 02:53:21;;;;;;;53.60;17.67;;;;;;;;;;5021091;28;20021;-50
2023/06/23 02:55:49;;;;;;;47.70;17.23;;;;;;;;;;5020304;28;20357;-52
2023/06/23 02:58:18;;;;;;;38.72;15.90;;;;;;;;;;5019012;28;20042;-51
2023/06/23 03:00:46;;;;;;;45.72;15.77;;;;;;;;;;5021725;28;20029;-51
2023/06/23 03:03:16;;;;;;;38.78;14.35;;;;;;;;;;5023044;28;20079;-54
2023/06/23 03:05:44;;;;;;;39.63;15.90;;;;;;;;;;5022259;28;20069;-49
2023/06/23 03:08:11;;;;;;;36.35;14.52;;;;;;;;;;5019561;28;20080;-51
2023/06/23 03:10:38;;;;;;;35.03;13.88;;;;;;;;;;5021887;28;20029;-48
2023/06/23 03:13:05;;;;;;;38.63;13.90;;;;;;;;;;5020724;28;20506;-51
2023/06/23 03:15:32;;;;;;;32.42;12.60;;;;;;;;;;5020416;28;20099;-51
2023/06/23 03:18:12;;;;;;;34.45;13.00;;;;;;;;;;5021910;28;20025;-48
2023/06/23 03:20:43;;;;;;;33.28;13.15;;;;;;;;;;5021956;28;20378;-50
2023/06/23 03:23:13;;;;;;;31.98;12.40;;;;;;;;;;5021860;28;20033;-51
2023/06/23 03:25:41;;;;;;;29.60;12.15;;;;;;;;;;5020818;28;20065;-49
2023/06/23 03:28:13;;;;;;;30.20;12.15;;;;;;;;;;5020119;28;20535;-53
2023/06/23 03:30:41;;;;;;;32.35;12.45;;;;;;;;;;5021829;28;20036;-50
2023/06/23 03:33:10;;;;;;;32.40;12.30;;;;;;;;;;5021888;28;20499;-51
2023/06/23 03:35:47;;;;;;;28.90;11.23;;;;;;;;;;5021940;28;20026;-53
2023/06/23 03:38:22;;;;;;;25.70;11.20;;;;;;;;;;5021738;28;20038;-50
2023/06/23 03:40:52;;;;;;;29.77;10.77;;;;;;;;;;5021708;28;20026;-49
2023/06/23 03:43:23;;;;;;;23.77;10.20;;;;;;;;;;5021922;28;20048;-49
2023/06/23 03:45:54;;;;;;;26.57;9.80;;;;;;;;;;5021714;28;20478;-50
2023/06/23 03:48:21;;;;;;;21.70;10.25;;;;;;;;;;5020770;28;20281;-50
2023/06/23 03:50:50;;;;;;;26.75;10.38;;;;;;;;;;5019706;28;20494;-50
2023/06/23 03:53:19;;;;;;;22.25;9.73;;;;;;;;;;5020138;28;20038;-50
2023/06/23 03:55:47;;;;;;;18.70;8.77;;;;;;;;;;5020259;28;20037;-51
2023/06/23 03:58:15;;;;;;;19.77;8.68;;;;;;;;;;5003802;28;20041;-49
2023/06/23 04:00:43;;;;;;;22.30;9.57;;;;;;;;;;5020479;28;20061;-49
2023/06/23 04:03:11;;;;;;;19.15;8.80;;;;;;;;;;5019588;28;20034;-52
2023/06/23 04:05:39;;;;;;;21.52;8.68;;;;;;;;;;5021265;28;20530;-50
2023/06/23 04:08:07;;;;;;;19.98;7.65;;;;;;;;;;5021287;28;20385;-51
2023/06/23 04:10:36;;;;;;;18.08;8.45;;;;;;;;;;5019249;28;20022;-49
2023/06/23 04:13:04;;;;;;;20.63;8.43;;;;;;;;;;5020512;28;20034;-52
2023/06/23 04:15:31;;;;;;;18.85;8.52;;;;;;;;;;5021456;28;20116;-50
2023/06/23 04:17:59;;;;;;;20.67;8.13;;;;;;;;;;5019750;28;20396;-50
2023/06/23 04:20:26;;;;;;;20.55;8.60;;;;;;;;;;5019904;28;20491;-49
2023/06/23 04:22:53;;;;;;;17.50;8.13;;;;;;;;;;5023611;28;20387;-50
2023/06/23 04:25:22;;;;;;;15.50;7.53;;;;;;;;;;5024037;28;20029;-51
2023/06/23 04:27:51;;;;;;;17.48;7.53;;;;;;;;;;5023068;28;20083;-51
2023/06/23 04:30:19;;;;;;;16.80;7.82;;;;;;;;;;5025054;28;20048;-49
2023/06/23 04:32:47;;;;;;;16.20;7.00;;;;;;;;;;5024465;28;20022;-51
2023/06/23 04:35:14;;;;;;;17.15;7.65;;;;;;;;;;5022913;28;20029;-54
2023/06/23 04:37:45;;;;;;;16.83;7.28;;;;;;;;;;5024122;28;20124;-54
2023/06/23 04:40:31;;;;;;;14.17;6.87;;;;;;;;;;5024729;28;20041;-56
2023/06/23 04:43:18;;;;;;;14.32;6.88;;;;;;;;;;5024926;28;20064;-53
2023/06/23 04:45:55;;;;;;;14.93;6.88;;;;;;;;;;5009135;28;20046;-52
2023/06/23 04:48:24;;;;;;;18.13;6.78;;;;;;;;;;5024878;28;20695;-51
2023/06/23 04:50:53;;;;;;;12.15;5.80;;;;;;;;;;5024585;28;20033;-53
2023/06/23 04:53:22;;;;;;;15.82;6.80;;;;;;;;;;5023341;28;20038;-53
2023/06/23 04:55:52;;;;;;;12.60;6.28;;;;;;;;;;5022858;28;20499;-50
2023/06/23 04:58:19;;;;;;;14.13;6.47;;;;;;;;;;5024597;28;20064;-50
2023/06/23 05:00:47;;;;;;;14.43;6.03;;;;;;;;;;5024043;28;20088;-51
2023/06/23 05:03:15;;;;;;;15.80;6.53;;;;;;;;;;5022472;28;20888;-49
2023/06/23 05:05:43;;;;;;;13.50;6.45;;;;;;;;;;5023562;28;20026;-51
2023/06/23 05:08:10;;;;;;;12.48;5.75;;;;;;;;;;5006629;28;20517;-50
2023/06/23 05:10:38;;;;;;;12.45;5.47;;;;;;;;;;5024341;28;20024;-52
2023/06/23 05:13:06;;;;;;;10.77;5.60;;;;;;;;;;5023707;28;20037;-49
2023/06/23 05:15:33;;;;;;;11.77;5.85;;;;;;;;;;5022128;28;20065;-50
2023/06/23 05:18:02;;;;;;;11.88;5.43;;;;;;;;;;5023470;28;20018;-50
2023/06/23 05:20:30;;;;;;;12.27;6.22;;;;;;;;;;5023957;28;20048;-50
2023/06/23 05:23:01;;;;;;;11.50;5.38;;;;;;;;;;5024157;28;20783;-49
2023/06/23 05:25:30;;;;;;;10.57;5.53;;;;;;;;;;5023818;28;20459;-51
2023/06/23 05:28:01;;;;;;;12.75;5.63;;;;;;;;;;5023978;28;20461;-48
2023/06/23 05:30:29;;;;;;;13.00;5.60;;;;;;;;;;5023664;28;20439;-51
2023/06/23 05:32:57;;;;;;;10.32;5.00;;;;;;;;;;5023337;28;20272;-52
2023/06/23 05:35:25;;;;;;;12.15;5.50;;;;;;;;;;5022645;28;20061;-52
2023/06/23 05:37:52;;;;;;;12.02;5.22;;;;;;;;;;5021743;28;20065;-50
2023/06/23 05:40:19;;;;;;;10.18;5.82;;;;;;;;;;5030215;28;20022;-52
2023/06/23 05:42:47;;;;;;;12.13;5.32;;;;;;;;;;5033170;28;20022;-51
2023/06/23 05:45:14;;;;;;;9.25;5.15;;;;;;;;;;5015074;28;20057;-52
2023/06/23 05:48:00;;;;;;;10.80;5.07;;;;;;;;;;5033119;28;20037;-51
2023/06/23 05:50:29;;;;;;;9.88;4.85;;;;;;;;;;5032969;28;20021;-54
2023/06/23 05:53:05;;;;;;;9.30;4.75;;;;;;;;;;5033061;28;20476;-52
2023/06/23 05:55:33;;;;;;;7.20;4.50;;;;;;;;;;5033063;28;20673;-50
2023/06/23 05:58:02;;;;;;;9.27;5.10;;;;;;;;;;5032923;28;20063;-50
2023/06/23 06:00:31;;;;;;;7.63;4.43;;;;;;;;;;5032843;28;20056;-53
2023/06/23 06:03:02;;;;;;;9.93;4.68;;;;;;;;;;5050517;28;20056;-51
2023/06/23 06:05:29;;;;;;;7.72;4.20;;;;;;;;;;5052517;28;20029;-50
2023/06/23 06:07:57;;;;;;;8.38;4.07;;;;;;;;;;5052616;28;20430;-49
2023/06/23 06:10:26;;;;;;;8.95;4.10;;;;;;;;;;5052436;28;20033;-50
2023/06/23 06:12:54;;;;;;;8.75;4.70;;;;;;;;;;5052406;28;20085;-50
2023/06/23 06:15:22;;;;;;;10.52;4.35;;;;;;;;;;5052398;28;20492;-51
2023/06/23 06:17:49;;;;;;;8.88;4.70;;;;;;;;;;5052526;28;20032;-51
2023/06/23 06:20:16;;;;;;;10.13;4.40;;;;;;;;;;5052351;28;20052;-49
2023/06/23 06:22:45;;;;;;;7.95;4.03;;;;;;;;;;5052355;28;20033;-50
2023/06/23 06:25:14;;;;;;;7.22;4.05;;;;;;;;;;5052280;28;20162;-49
2023/06/23 06:27:43;;;;;;;6.70;4.18;;;;;;;;;;5052025;28;20111;-50
2023/06/23 06:30:10;;;;;;;7.88;4.50;;;;;;;;;;5052177;28;20064;-50
2023/06/23 06:32:38;;;;;;;7.85;4.03;;;;;;;;;;5052157;28;20029;-53
2023/06/23 06:35:07;;;;;;;9.02;4.07;;;;;;;;;;5052179;28;20028;-54
2023/06/23 06:37:35;;;;;;;9.07;4.00;;;;;;;;;;5052132;28;20048;-50
2023/06/23 06:40:05;;;;;;;7.70;3.90;;;;;;;;;;5051976;28;20036;-54
2023/06/23 06:42:32;;;;;;;5.68;3.80;;;;;;;;;;5052045;28;20036;-52
2023/06/23 06:44:59;;;;;;;9.45;4.07;;;;;;;;;;5014869;28;20475;-51
2023/06/23 06:47:27;;;;;;;8.68;3.97;;;;;;;;;;5032115;28;20021;-53
2023/06/23 06:49:55;;;;;;;6.50;3.97;;;;;;;;;;5031840;28;20031;-52
2023/06/23 06:52:23;;;;;;;7.43;4.13;;;;;;;;;;5031949;28;20029;-51
2023/06/23 06:54:52;;;;;;;7.00;3.97;;;;;;;;;;5031972;28;20029;-49
2023/06/23 06:57:20;;;;;;;5.18;3.13;;;;;;;;;;5031924;28;20056;-50
2023/06/23 06:59:47;;;;;;;6.97;3.72;;;;;;;;;;5031720;28;20037;-55
2023/06/23 07:02:15;;;;;;;6.65;3.78;;;;;;;;;;5031865;28;20041;-51
2023/06/23 07:04:42;;;;;;;6.57;3.40;;;;;;;;;;5031768;28;20021;-51
2023/06/23 07:07:09;;;;;;;6.75;3.70;;;;;;;;;;5031642;28;20455;-51
2023/06/23 07:09:36;;;;;;;5.75;3.75;;;;;;;;;;5013795;28;20403;-50
2023/06/23 07:12:03;;;;;;;7.28;3.25;;;;;;;;;;5031698;28;20492;-52
2023/06/23 07:14:29;;;;;;;6.60;3.40;;;;;;;;;;5031717;28;20557;-56
2023/06/23 07:16:56;;;;;;;7.93;3.80;;;;;;;;;;5031552;28;20080;-50
2023/06/23 07:19:23;;;;;;;5.50;3.30;;;;;;;;;;5031361;28;20500;-50
2023/06/23 07:21:50;;;;;;;5.93;3.00;;;;;;;;;;5013775;28;20410;-50
2023/06/23 07:24:17;;;;;;;6.18;3.10;;;;;;;;;;5031620;28;20033;-51
2023/06/23 07:26:44;;;;;;;4.97;3.08;;;;;;;;;;5013768;28;20394;-50
2023/06/23 07:29:11;;;;;;;5.35;3.17;;;;;;;;;;5031442;28;20025;-51
2023/06/23 07:31:39;;;;;;;6.53;3.25;;;;;;;;;;5031467;28;20033;-51
2023/06/23 07:34:06;;;;;;;6.18;3.45;;;;;;;;;;5031383;28;20034;-51
2023/06/23 07:36:33;;;;;;;5.35;2.92;;;;;;;;;;5031506;28;20038;-51
2023/06/23 07:38:59;;;;;;;6.05;3.38;;;;;;;;;;5031329;28;20057;-52
2023/06/23 07:41:26;;;;;;;6.13;3.38;;;;;;;;;;5031445;28;20037;-49
2023/06/23 07:43:53;;;;;;;5.68;3.28;;;;;;;;;;5031039;28;20025;-52
2023/06/23 07:46:20;;;;;;;4.88;2.70;;;;;;;;;;5031413;28;20026;-49
2023/06/23 07:48:47;;;;;;;4.15;2.58;;;;;;;;;;5031292;28;20037;-49
2023/06/23 07:51:14;;;;;;;4.93;3.00;;;;;;;;;;5031344;28;20021;-50
2023/06/23 07:53:42;;;;;;;4.60;2.88;;;;;;;;;;5031328;28;20060;-48
2023/06/23 07:56:12;;;;;;;4.80;2.88;;;;;;;;;;5031139;28;20033;-49
2023/06/23 07:58:39;;;;;;;5.35;3.08;;;;;;;;;;5034691;28;20029;-53
2023/06/23 08:01:06;;;;;;;5.50;2.88;;;;;;;;;;5035158;28;20032;-50
2023/06/23 08:03:34;;;;;;;5.75;2.85;;;;;;;;;;5035113;28;20570;-49
2023/06/23 08:06:01;;;;;;;6.38;2.95;;;;;;;;;;5032446;28;20084;-50
2023/06/23 08:08:28;;;;;;;4.60;2.40;;;;;;;;;;5015178;28;20029;-50
2023/06/23 08:10:55;;;;;;;4.93;2.75;;;;;;;;;;5015177;28;20029;-49
2023/06/23 08:13:21;;;;;;;4.25;2.67;;;;;;;;;;5015266;28;20049;-50
2023/06/23 08:15:48;;;;;;;4.32;2.70;;;;;;;;;;5015156;28;20076;-51
2023/06/23 08:18:15;;;;;;;5.15;2.75;;;;;;;;;;5015004;28;20061;-50
2023/06/23 08:20:42;;;;;;;4.57;2.75;;;;;;;;;;5014956;28;20117;-53
2023/06/23 08:23:09;;;;;;;3.85;2.28;;;;;;;;;;5014961;28;21251;-52
2023/06/23 08:25:36;;;;;;;6.10;2.88;;;;;;;;;;5014916;28;20050;-51
2023/06/23 08:28:03;;;;;;;4.53;2.70;;;;;;;;;;4997230;28;20030;-50
2023/06/23 08:30:31;;;;;;;5.47;2.50;;;;;;;;;;5014767;28;20032;-49
2023/06/23 08:32:58;;;;;;;3.80;2.42;;;;;;;;;;5014824;28;20036;-49
2023/06/23 08:35:26;;;;;;;3.40;2.30;;;;;;;;;;5014646;28;20561;-49
2023/06/23 08:37:53;;;;;;;3.92;2.30;;;;;;;;;;5014751;28;20038;-49
2023/06/23 08:40:20;;;;;;;4.20;2.70;;;;;;;;;;5014538;28;20500;-50
2023/06/23 08:42:47;;;;;;;4.55;2.50;;;;;;;;;;5014649;28;20034;-51
2023/06/23 08:45:14;;;;;;;3.83;2.50;;;;;;;;;;5014314;28;20068;-51
2023/06/23 08:47:43;;;;;;;5.85;2.63;;;;;;;;;;5014518;28;20026;-51
2023/06/23 08:50:10;;;;;;;4.03;2.40;;;;;;;;;;5014436;28;20500;-54
2023/06/23 08:52:37;;;;;;;3.97;2.45;;;;;;;;;;5014347;28;20030;-49
2023/06/23 08:55:04;;;;;;;3.90;2.47;;;;;;;;;;5014479;28;20032;-49
2023/06/23 08:57:32;;;;;;;7.10;2.10;;;;;;;;;;5014354;28;20044;-52
2023/06/23 09:00:00;;;;;;;2.88;1.92;;;;;;;;;;5014014;28;20121;-50
2023/06/23 09:02:27;;;;;;;3.60;2.13;;;;;;;;;;5014209;28;20045;-50
2023/06/23 09:04:54;;;;;;;4.18;2.25;;;;;;;;;;5016637;28;20044;-53
2023/06/23 09:07:21;;;;;;;3.60;2.08;;;;;;;;;;5029234;28;20518;-49
2023/06/23 09:09:48;;;;;;;4.32;2.35;;;;;;;;;;5014053;28;20041;-52
2023/06/23 09:12:23;;;;;;;3.80;2.20;;;;;;;;;;5017060;28;20472;-52
2023/06/23 09:14:51;;;;;;;3.47;2.35;;;;;;;;;;5033575;28;20065;-48
2023/06/23 09:17:18;;;;;;;3.22;2.25;;;;;;;;;;5033763;28;20483;-50
2023/06/23 09:19:49;;;;;;;3.78;2.33;;;;;;;;;;5030543;28;20051;-49
2023/06/23 09:22:19;;;;;;;5.53;2.47;;;;;;;;;;5027686;28;20042;-49
2023/06/23 09:24:47;;;;;;;4.57;2.13;;;;;;;;;;4996001;28;20057;-52
2023/06/23 09:27:15;;;;;;;4.00;2.15;;;;;;;;;;5021289;28;20028;-51
2023/06/23 09:29:43;;;;;;;5.07;2.65;;;;;;;;;;5027765;28;20034;-52
2023/06/23 09:32:10;;;;;;;3.83;2.15;;;;;;;;;;5023926;28;20033;-52
2023/06/23 09:34:41;;;;;;;4.57;2.47;;;;;;;;;;5022884;28;20523;-50
2023/06/23 09:37:07;;;;;;;7.90;2.45;;;;;;;;;;5024753;28;20044;-50
2023/06/23 09:39:38;;;;;;;6.22;2.45;;;;;;;;;;5021727;28;20091;-50
2023/06/23 09:42:06;;;;;;;5.93;2.28;;;;;;;;;;5031008;28;20104;-51
2023/06/23 09:44:34;;;;;;;7.28;2.33;;;;;;;;;;5033103;28;20053;-52
2023/06/23 09:47:01;;;;;;;4.00;2.25;;;;;;;;;;5015272;28;20040;-51
2023/06/23 09:49:29;;;;;;;4.68;2.50;;;;;;;;;;5025955;28;20467;-50
2023/06/23 09:51:56;;;;;;;4.68;2.35;;;;;;;;;;5013377;28;20058;-52
2023/06/23 09:54:34;;;;;;;4.82;2.35;;;;;;;;;;5013151;28;20108;-52
2023/06/23 09:57:13;;;;;;;5.05;2.13;;;;;;;;;;5013099;28;20034;-50
2023/06/23 09:59:40;;;;;;;6.40;2.47;;;;;;;;;;5013143;28;20033;-51
2023/06/23 10:02:11;;;;;;;6.32;2.30;;;;;;;;;;5013299;28;20091;-57
2023/06/23 10:04:38;;;;;;;5.72;2.10;;;;;;;;;;5013095;28;20029;-56
2023/06/23 10:07:24;;;;;;;5.78;2.28;;;;;;;;;;5012986;28;20387;-56
2023/06/23 10:09:54;;;;;;;3.90;2.17;;;;;;;;;;5008252;28;20026;-51
2023/06/23 10:12:26;;;;;;;8.23;2.20;;;;;;;;;;5012794;28;20026;-45
2023/06/23 10:14:54;;;;;;;5.43;2.78;;;;;;;;;;5023296;28;20056;-47
2023/06/23 10:17:21;;;;;;;4.20;2.28;;;;;;;;;;5032205;28;20025;-45
2023/06/23 10:19:49;;;;;;;5.40;2.20;;;;;;;;;;5031214;28;20041;-46
2023/06/23 10:22:18;;;;;;;4.90;2.60;;;;;;;;;;5021051;28;20095;-49
2023/06/23 10:24:54;;;;;;;4.22;2.17;;;;;;;;;;5011775;28;20113;-51
2023/06/23 10:27:25;;;;;;;5.20;2.25;;;;;;;;;;5011828;28;20488;-50
2023/06/23 10:29:53;;;;;;;3.53;2.25;;;;;;;;;;5011852;28;20065;-49
2023/06/23 10:32:25;;;;;;;5.25;2.13;;;;;;;;;;5012243;28;20080;-51
2023/06/23 10:34:52;;;;;;;5.20;2.60;;;;;;;;;;5019367;28;20447;-48
2023/06/23 10:37:23;;;;;;;5.55;2.28;;;;;;;;;;5024601;28;20037;-48
2023/06/23 10:39:57;;;;;;;7.43;2.60;;;;;;;;;;5031500;28;20081;-47
2023/06/23 10:42:25;;;;;;;5.55;2.00;;;;;;;;;;5031741;28;20030;-47
2023/06/23 10:44:52;;;;;;;4.90;1.95;;;;;;;;;;5031406;28;20468;-52
2023/06/23 10:47:19;;;;;;;7.18;2.33;;;;;;;;;;5030005;28;20079;-54
2023/06/23 10:49:47;;;;;;;4.57;2.28;;;;;;;;;;5031405;28;20035;-49
2023/06/23 10:52:15;;;;;;;8.73;2.20;;;;;;;;;;5031606;28;20681;-49
2023/06/23 10:54:45;;;;;;;6.43;1.83;;;;;;;;;;5031704;28;20053;-49
2023/06/23 10:57:13;;;;;;;3.70;2.33;;;;;;;;;;5030097;28;20134;-47
2023/06/23 10:59:43;;;;;;;6.00;2.22;;;;;;;;;;5031267;28;20045;-48
2023/06/23 11:02:13;;;;;;;6.60;2.08;;;;;;;;;;5031754;28;20049;-55
2023/06/23 11:04:51;;;;;;;7.80;2.10;;;;;;;;;;5031611;28;20390;-48
2023/06/23 11:07:18;;;;;;;3.22;2.15;;;;;;;;;;5031265;28;20033;-53
2023/06/23 11:09:49;;;;;;;4.90;2.05;;;;;;;;;;5030184;28;20029;-45
2023/06/23 11:12:29;;;;;;;6.20;2.25;;;;;;;;;;5030513;28;20041;-45
2023/06/23 11:15:04;;;;;;;7.72;2.30;;;;;;;;;;5030113;28;20079;-45
2023/06/23 11:17:39;;;;;;;7.07;2.33;;;;;;;;;;5031488;28;20052;-49
2023/06/23 11:20:09;;;;;;;4.65;2.50;;;;;;;;;;5031134;28;20029;-48
2023/06/23 11:22:40;;;;;;;9.27;2.78;;;;;;;;;;5023279;28;20029;-50
2023/06/23 11:25:08;;;;;;;9.60;3.42;;;;;;;;;;5020181;28;20518;-45
2023/06/23 11:27:35;;;;;;;35.25;3.58;;;;;;;;;;5020151;28;20084;-46
2023/06/23 11:30:18;;;;;;;19.75;3.55;;;;;;;;;;5021617;28;20030;-46
2023/06/23 11:32:45;;;;;;;162.25;10.15;;;;;;;;;;5025933;28;20029;-49
2023/06/23 11:35:12;;;;;;;493.80;27.77;;;;;;;;;;5025217;28;20032;-46
2023/06/23 11:37:39;;;;;;;228.73;14.13;;;;;;;;;;5028185;28;20541;-47
2023/06/23 11:40:09;;;;;;;114.45;8.77;;;;;;;;;;5006861;28;20408;-46
2023/06/23 11:42:36;;;;;;;47.13;5.80;;;;;;;;;;5023722;28;20503;-44
2023/06/23 11:45:04;;;;;;;47.80;6.57;;;;;;;;;;5002359;28;20041;-45
2023/06/23 11:47:31;;;;;;;50.40;6.03;;;;;;;;;;5015297;28;20049;-46
2023/06/23 11:49:58;;;;;;;28.23;7.70;;;;;;;;;;5015234;28;20040;-46
2023/06/23 11:52:25;;;;;;;31.38;6.22;;;;;;;;;;5015337;28;20511;-46
2023/06/23 11:54:52;;;;;;;90.13;8.18;;;;;;;;;;5015936;28;20084;-46
2023/06/23 11:57:20;;;;;;;89.28;8.82;;;;;;;;;;5022090;28;20061;-48
2023/06/23 11:59:48;;;;;;;59.58;6.50;;;;;;;;;;5026425;28;20541;-46
2023/06/23 12:02:15;;;;;;;72.15;6.78;;;;;;;;;;5034528;28;20037;-47
2023/06/23 12:04:42;;;;;;;51.00;5.85;;;;;;;;;;5034612;28;20037;-46
2023/06/23 12:07:10;;;;;;;33.25;5.38;;;;;;;;;;5035028;28;20036;-46
2023/06/23 12:09:39;;;;;;;46.85;6.40;;;;;;;;;;5034534;28;20037;-48
2023/06/23 12:12:07;;;;;;;41.10;6.57;;;;;;;;;;5034532;28;20402;-49
2023/06/23 12:14:34;;;;;;;38.85;5.65;;;;;;;;;;5034565;28;20037;-46
2023/06/23 12:17:11;;;;;;;38.13;6.38;;;;;;;;;;5034629;28;20041;-46
2023/06/23 12:19:39;;;;;;;40.58;5.40;;;;;;;;;;5033994;28;20033;-47
2023/06/23 12:22:15;;;;;;;37.90;5.40;;;;;;;;;;5029522;28;20521;-46
2023/06/23 12:24:42;;;;;;;32.90;5.10;;;;;;;;;;5033896;28;20049;-45
2023/06/23 12:27:12;;;;;;;34.20;6.18;;;;;;;;;;5033838;28;20083;-46
2023/06/23 12:29:39;;;;;;;26.73;5.30;;;;;;;;;;5034213;28;20040;-47
2023/06/23 12:32:07;;;;;;;26.23;4.95;;;;;;;;;;5021959;28;20591;-49
2023/06/23 12:34:42;;;;;;;28.40;5.60;;;;;;;;;;5033860;28;20116;-49
2023/06/23 12:37:14;;;;;;;23.77;5.35;;;;;;;;;;5026984;28;20442;-48
2023/06/23 12:39:41;;;;;;;16.85;4.13;;;;;;;;;;5033289;28;20049;-47
2023/06/23 12:42:08;;;;;;;19.27;4.63;;;;;;;;;;5027488;28;20039;-46
2023/06/23 12:44:36;;;;;;;21.02;5.90;;;;;;;;;;5015600;28;20041;-47
2023/06/23 12:47:04;;;;;;;21.52;5.47;;;;;;;;;;5028716;28;20044;-46
2023/06/23 12:49:32;;;;;;;20.35;5.22;;;;;;;;;;5033604;28;20029;-47
2023/06/23 12:52:02;;;;;;;24.45;4.95;;;;;;;;;;5030554;28;20032;-51
2023/06/23 12:54:30;;;;;;;29.55;5.40;;;;;;;;;;5033403;28;20479;-45
2023/06/23 12:56:58;;;;;;;25.83;4.03;;;;;;;;;;5022465;28;20033;-46
2023/06/23 12:59:26;;;;;;;19.27;3.78;;;;;;;;;;5032909;28;20124;-45
2023/06/23 13:01:53;;;;;;;18.08;4.30;;;;;;;;;;5022949;28;20124;-45
2023/06/23 13:04:21;;;;;;;18.77;3.60;;;;;;;;;;5032783;28;20026;-47
2023/06/23 13:06:49;;;;;;;17.95;4.10;;;;;;;;;;5033542;28;20037;-52
2023/06/23 13:09:16;;;;;;;13.55;2.97;;;;;;;;;;5033154;28;20381;-49
2023/06/23 13:11:43;;;;;;;14.15;3.17;;;;;;;;;;5033598;28;20068;-48
2023/06/23 13:14:11;;;;;;;17.10;3.40;;;;;;;;;;5033199;28;20079;-48
2023/06/23 13:16:38;;;;;;;12.27;3.33;;;;;;;;;;5033381;28;20082;-48
2023/06/23 13:19:05;;;;;;;23.23;4.20;;;;;;;;;;5033412;28;20029;-48
2023/06/23 13:21:32;;;;;;;22.83;4.30;;;;;;;;;;5033470;28;20530;-48
2023/06/23 13:23:59;;;;;;;26.17;6.20;;;;;;;;;;5033210;28;20077;-49
2023/06/23 13:26:26;;;;;;;22.42;6.57;;;;;;;;;;5033505;28;20388;-47
2023/06/23 13:28:53;;;;;;;26.25;6.03;;;;;;;;;;5032924;28;20395;-47
2023/06/23 13:31:20;;;;;;;36.97;5.80;;;;;;;;;;5027348;28;20112;-47
2023/06/23 13:33:47;;;;;;;25.20;6.28;;;;;;;;;;5033228;28;20488;-48
2023/06/23 13:36:14;;;;;;;26.05;5.95;;;;;;;;;;5033240;28;20030;-47
2023/06/23 13:38:42;;;;;;;38.70;6.57;;;;;;;;;;5032726;28;20132;-48
2023/06/23 13:41:09;;;;;;;27.13;5.95;;;;;;;;;;5032645;28;20041;-47
2023/06/23 13:43:36;;;;;;;32.78;6.45;;;;;;;;;;5032678;28;20037;-48
2023/06/23 13:46:03;;;;;;;16.33;4.55;;;;;;;;;;5032639;28;20128;-50
2023/06/23 13:48:30;;;;;;;12.63;5.03;;;;;;;;;;5032900;28;20855;-47
2023/06/23 13:50:58;;;;;;;16.65;4.43;;;;;;;;;;5032541;28;20553;-48
2023/06/23 13:53:25;;;;;;;9.95;4.30;;;;;;;;;;5033091;28;20510;-49
2023/06/23 13:55:52;;;;;;;11.40;4.22;;;;;;;;;;5031487;28;20052;-48
2023/06/23 13:58:19;;;;;;;11.23;4.68;;;;;;;;;;5032625;28;20063;-48
2023/06/23 14:00:46;;;;;;;12.75;6.28;;;;;;;;;;5032426;28;20040;-48
2023/06/23 14:03:13;;;;;;;14.25;6.50;;;;;;;;;;5032586;28;20025;-49
2023/06/23 14:05:40;;;;;;;14.70;6.10;;;;;;;;;;5032127;28;20025;-49
2023/06/23 14:08:07;;;;;;;16.42;5.45;;;;;;;;;;5032494;28;20021;-48
2023/06/23 14:10:34;;;;;;;11.88;4.13;;;;;;;;;;5032551;28;20024;-46
2023/06/23 14:13:01;;;;;;;7.32;4.75;;;;;;;;;;5024350;28;20030;-46
2023/06/23 14:15:28;;;;;;;9.23;4.97;;;;;;;;;;5027059;28;20491;-46
2023/06/23 14:17:55;;;;;;;6.03;4.18;;;;;;;;;;5012690;28;20079;-48
2023/06/23 14:20:23;;;;;;;8.13;4.53;;;;;;;;;;5012443;28;20037;-47
2023/06/23 14:22:51;;;;;;;9.05;3.92;;;;;;;;;;5012129;28;20042;-46
2023/06/23 14:25:17;;;;;;;8.20;3.65;;;;;;;;;;5012145;28;20037;-47
2023/06/23 14:27:44;;;;;;;9.50;4.20;;;;;;;;;;5012177;28;20181;-46
2023/06/23 14:30:12;;;;;;;10.40;4.03;;;;;;;;;;5012003;28;20101;-47
2023/06/23 14:32:39;;;;;;;13.65;4.45;;;;;;;;;;5012258;28;20033;-46
2023/06/23 14:35:06;;;;;;;12.48;4.45;;;;;;;;;;5019042;28;20131;-47
2023/06/23 14:37:33;;;;;;;12.80;4.43;;;;;;;;;;5012296;28;20033;-47
2023/06/23 14:40:03;;;;;;;10.93;5.60;;;;;;;;;;5011850;28;20046;-46
2023/06/23 14:42:30;;;;;;;9.82;5.60;;;;;;;;;;5012277;28;20029;-47